createdAt,value
2023-03-13T00:04:59.044Z,960.13
2023-03-13T00:20:01.341Z,959.98
2023-03-13T00:35:03.639Z,959.85
2023-03-13T00:50:05.860Z,959.98
2023-03-13T01:05:08.136Z,960.04
2023-03-13T01:20:10.378Z,960.11
2023-03-13T01:35:12.638Z,960.16
2023-03-13T01:50:15.260Z,960.1
2023-03-13T02:05:17.620Z,960.09
2023-03-13T02:20:19.849Z,959.98
2023-03-13T02:35:22.162Z,959.9
2023-03-13T02:50:24.467Z,959.95
2023-03-13T03:05:26.733Z,959.91
2023-03-13T03:20:28.999Z,959.92
2023-03-13T03:35:31.254Z,959.89
2023-03-13T03:50:33.454Z,959.87
2023-03-13T04:05:35.763Z,959.67
2023-03-13T04:20:38.064Z,959.57
2023-03-13T04:35:40.551Z,959.59
2023-03-13T04:50:42.890Z,959.59
2023-03-13T05:05:45.113Z,959.56
2023-03-13T05:20:47.469Z,959.37
2023-03-13T05:35:49.707Z,959.42
2023-03-13T05:50:51.974Z,959.34
2023-03-13T06:05:54.176Z,959.35
2023-03-13T06:20:56.385Z,959.16
2023-03-13T06:35:58.641Z,958.86
2023-03-13T06:51:00.879Z,958.73
2023-03-13T07:06:03.117Z,958.59
2023-03-13T07:21:05.363Z,958.42
2023-03-13T07:36:07.834Z,958.35
2023-03-13T07:51:10.247Z,958.19
2023-03-13T08:06:12.463Z,958.05
2023-03-13T08:21:14.683Z,957.96
2023-03-13T08:36:17.035Z,957.72
2023-03-13T08:51:19.290Z,957.61
2023-03-13T09:06:21.541Z,957.56
2023-03-13T09:21:23.798Z,957.52
2023-03-13T09:36:26.206Z,957.36
2023-03-13T09:51:28.499Z,957.19
2023-03-13T10:06:30.824Z,956.95
2023-03-13T10:21:33.088Z,956.73
2023-03-13T10:36:35.342Z,956.6
2023-03-13T10:51:37.554Z,956.3
2023-03-13T11:06:39.840Z,956.1
2023-03-13T11:21:42.095Z,956.05
2023-03-13T11:36:44.476Z,955.79
2023-03-13T11:51:46.817Z,955.74
2023-03-13T12:06:49.193Z,955.59
2023-03-13T12:21:51.458Z,955.37
2023-03-13T12:36:53.745Z,955.4
2023-03-13T12:51:56.060Z,955.22
2023-03-13T13:06:58.274Z,955.04
2023-03-13T13:22:00.534Z,954.85
2023-03-13T13:37:02.904Z,954.64
2023-03-13T13:52:05.129Z,954.53
2023-03-13T14:07:07.453Z,954.5
2023-03-13T14:22:09.668Z,954.54
2023-03-13T14:37:18.264Z,954.46
2023-03-13T14:52:20.738Z,954.26
2023-03-13T15:07:23.125Z,954.12
2023-03-13T15:22:25.321Z,954.08
2023-03-13T15:37:27.573Z,954.04
2023-03-13T15:52:29.843Z,953.97
2023-03-13T16:07:32.055Z,953.82
2023-03-13T16:22:34.312Z,953.77
2023-03-13T16:37:36.603Z,953.66
2023-03-13T16:52:39.003Z,953.46
2023-03-13T17:07:41.342Z,953.44
2023-03-13T17:22:43.592Z,953.42
2023-03-13T17:37:45.837Z,953.26
2023-03-13T17:52:48.075Z,953.16
2023-03-13T18:07:50.326Z,953.06
2023-03-13T18:22:52.784Z,952.98
2023-03-13T18:37:55.084Z,952.72
2023-03-13T18:52:57.355Z,952.54
2023-03-13T19:07:59.662Z,952.36
2023-03-13T19:23:01.894Z,952.18
2023-03-13T19:38:04.119Z,951.9
2023-03-13T19:53:06.348Z,951.84
2023-03-13T20:08:08.606Z,951.81
2023-03-13T20:23:10.872Z,951.65
2023-03-13T20:38:13.085Z,951.43
2023-03-13T20:53:15.603Z,951.16
2023-03-13T21:08:17.983Z,950.98
2023-03-13T21:23:20.369Z,950.84
2023-03-13T21:38:22.622Z,950.73
2023-03-13T21:53:24.909Z,950.5
2023-03-13T22:08:27.257Z,950.25
2023-03-13T22:23:29.549Z,950.08
2023-03-13T22:38:31.841Z,949.99
2023-03-13T22:53:34.061Z,949.85
2023-03-13T23:08:36.393Z,949.62
2023-03-13T23:23:38.925Z,949.43
2023-03-13T23:38:41.147Z,949.12
2023-03-13T23:53:43.605Z,948.95
